Time,TemperatureF,DewpointF,PressureIn,WindDirection,WindDirectionDegrees,WindSpeedMPH,WindSpeedGustMPH,Humidity,HourlyPrecipIn,Conditions,Clouds,dailyrainin,SoftwareType,DateUTC
2013-12-06 00:00:00,32.8,31.1,30.13,NW,317,3.2,7.6,93,0.00,n/a,n/a,-99.99,Henriksen +1-Wire,2013-12-06 05:00:00,
2013-12-06 00:10:00,32.8,31.3,30.11,NW,320,2.9,6.0,94,0.00,n/a,n/a,-99.99,Henriksen +1-Wire,2013-12-06 05:10:00,
2013-12-06 00:20:00,32.7,31.0,30.11,NNW,334,3.7,5.9,93,0.00,n/a,n/a,-99.99,Henriksen +1-Wire,2013-12-06 05:20:00,
2013-12-06 00:30:00,32.6,30.9,30.09,NNW,347,4.5,7.6,93,0.00,n/a,n/a,-99.99,Henriksen +1-Wire,2013-12-06 05:30:00,
2013-12-06 00:40:00,32.6,30.9,30.09,NNW,328,2.1,7.8,93,0.00,n/a,n/a,-99.99,Henriksen +1-Wire,2013-12-06 05:40:00,
2013-12-06 00:50:00,32.6,31.0,30.09,NW,316,3.2,5.8,93,0.00,n/a,n/a,-99.99,Henriksen +1-Wire,2013-12-06 05:50:00,
2013-12-06 01:00:00,32.5,30.9,30.10,NW,316,5.6,8.5,93,0.00,n/a,n/a,-99.99,Henriksen +1-Wire,2013-12-06 06:00:00,
2013-12-06 01:10:00,30.8,29.5,30.11,NW,318,4.3,8.6,94,0.00,n/a,n/a,-99.99,Henriksen +1-Wire,2013-12-06 06:10:00,
2013-12-06 01:20:00,30.5,29.5,30.12,NW,315,3.8,8.0,96,0.00,n/a,n/a,-99.99,Henriksen +1-Wire,2013-12-06 06:20:00,
2013-12-06 01:30:00,30.5,29.9,30.12,WNW,303,3.3,9.8,97,0.00,n/a,n/a,-99.99,Henriksen +1-Wire,2013-12-06 06:30:00,
2013-12-06 01:40:00,30.2,29.5,30.09,NW,322,3.3,8.0,97,0.00,n/a,n/a,-99.99,Henriksen +1-Wire,2013-12-06 06:40:00,
2013-12-06 01:50:00,30.2,29.7,30.10,NW,323,3.5,7.7,97,0.01,n/a,n/a,-99.99,Henriksen +1-Wire,2013-12-06 06:50:00,
2013-12-06 02:00:00,30.3,30.3,30.10,NW,311,3.1,4.5,99,0.01,n/a,n/a,-99.99,Henriksen +1-Wire,2013-12-06 07:00:00,
2013-12-06 02:10:00,30.3,30.1,30.11,NNW,328,2.2,4.0,99,0.01,n/a,n/a,-99.99,Henriksen +1-Wire,2013-12-06 07:10:00,
2013-12-06 02:20:00,30.3,30.1,30.12,NW,319,3.6,8.0,99,0.01,n/a,n/a,-99.99,Henriksen +1-Wire,2013-12-06 07:20:00,
2013-12-06 02:30:00,30.2,30.2,30.10,NNW,328,2.7,5.4,99,0.01,n/a,n/a,-99.99,Henriksen +1-Wire,2013-12-06 07:30:00,
2013-12-06 02:40:00,30.0,29.8,30.09,NNW,340,4.9,10.1,99,0.01,n/a,n/a,-99.99,Henriksen +1-Wire,2013-12-06 07:40:00,
2013-12-06 02:50:00,29.8,29.7,30.10,NNW,339,3.5,6.7,99,0.01,n/a,n/a,-99.99,Henriksen +1-Wire,2013-12-06 07:50:00,
2013-12-06 03:00:00,29.9,29.8,30.10,NNW,338,3.1,6.8,99,0.01,n/a,n/a,-99.99,Henriksen +1-Wire,2013-12-06 08:00:00,
2013-12-06 03:10:00,31.2,31.1,30.12,NW,324,4.6,7.2,99,0.01,n/a,n/a,-99.99,Henriksen +1-Wire,2013-12-06 08:10:00,
2013-12-06 03:20:00,30.9,30.9,30.15,NW,312,4.7,8.5,100,0.01,n/a,n/a,-99.99,Henriksen +1-Wire,2013-12-06 08:20:00,
2013-12-06 03:30:00,29.7,29.4,30.15,NW,318,5.6,9.4,98,0.01,n/a,n/a,-99.99,Henriksen +1-Wire,2013-12-06 08:30:00,
2013-12-06 03:40:00,29.8,29.7,30.15,NW,323,4.0,8.4,99,0.01,n/a,n/a,-99.99,Henriksen +1-Wire,2013-12-06 08:40:00,
2013-12-06 03:50:00,29.8,29.8,30.15,NW,315,3.5,9.3,99,0.00,n/a,n/a,-99.99,Henriksen +1-Wire,2013-12-06 08:50:00,
2013-12-06 04:00:00,28.4,28.2,30.15,NW,318,4.8,7.6,99,0.00,n/a,n/a,-99.99,Henriksen +1-Wire,2013-12-06 09:00:00,
2013-12-06 04:10:00,28.2,28.1,30.15,NW,317,2.9,7.0,99,0.00,n/a,n/a,-99.99,Henriksen +1-Wire,2013-12-06 09:10:00,
2013-12-06 04:20:00,28.2,28.1,30.15,NW,322,2.6,6.7,99,0.00,n/a,n/a,-99.99,Henriksen +1-Wire,2013-12-06 09:20:00,
2013-12-06 04:30:00,28.2,28.1,30.15,NW,326,1.9,4.9,99,0.00,n/a,n/a,-99.99,Henriksen +1-Wire,2013-12-06 09:30:00,
2013-12-06 04:40:00,28.2,28.1,30.15,NNW,327,1.6,3.7,99,0.00,n/a,n/a,-99.99,Henriksen +1-Wire,2013-12-06 09:40:00,
2013-12-06 04:50:00,28.2,28.2,30.15,NNW,327,1.9,4.3,99,0.00,n/a,n/a,-99.99,Henriksen +1-Wire,2013-12-06 09:50:00,
2013-12-06 05:00:00,28.2,28.2,30.16,NNW,331,1.9,5.1,100,0.00,n/a,n/a,-99.99,Henriksen +1-Wire,2013-12-06 10:00:00,
2013-12-06 05:10:00,28.1,28.1,30.15,NNW,329,3.0,5.6,99,0.00,n/a,n/a,-99.99,Henriksen +1-Wire,2013-12-06 10:10:00,
2013-12-06 05:20:00,28.2,28.2,30.15,NW,326,3.3,5.4,100,0.00,n/a,n/a,-99.99,Henriksen +1-Wire,2013-12-06 10:20:00,
2013-12-06 05:30:00,28.2,28.2,30.15,NW,321,3.1,6.2,99,0.00,n/a,n/a,-99.99,Henriksen +1-Wire,2013-12-06 10:30:00,
2013-12-06 05:40:00,28.8,28.8,30.15,NW,325,3.5,8.4,100,0.00,n/a,n/a,-99.99,Henriksen +1-Wire,2013-12-06 10:40:00,
2013-12-06 05:50:00,29.4,29.4,30.12,NNW,337,2.4,6.8,100,0.00,n/a,n/a,-99.99,Henriksen +1-Wire,2013-12-06 10:50:00,
2013-12-06 06:00:00,29.3,29.3,30.13,NNW,339,3.0,6.8,100,0.00,n/a,n/a,-99.99,Henriksen +1-Wire,2013-12-06 11:00:00,
2013-12-06 06:10:00,29.3,29.3,30.15,NW,323,2.8,6.7,100,0.00,n/a,n/a,-99.99,Henriksen +1-Wire,2013-12-06 11:10:00,
2013-12-06 06:20:00,29.1,29.1,30.15,NW,323,3.3,6.2,100,0.00,n/a,n/a,-99.99,Henriksen +1-Wire,2013-12-06 11:20:00,
2013-12-06 06:30:00,29.1,29.1,30.14,NNW,335,3.4,6.0,100,0.00,n/a,n/a,-99.99,Henriksen +1-Wire,2013-12-06 11:30:00,
2013-12-06 06:40:00,29.1,29.1,30.15,NNW,333,4.4,7.6,100,0.00,n/a,n/a,-99.99,Henriksen +1-Wire,2013-12-06 11:40:00,
2013-12-06 06:50:00,29.1,29.1,30.15,NNW,340,4.5,7.0,100,0.00,n/a,n/a,-99.99,Henriksen +1-Wire,2013-12-06 11:50:00,
2013-12-06 07:00:00,29.0,28.8,30.16,North,351,4.4,9.3,99,0.00,n/a,n/a,-99.99,Henriksen +1-Wire,2013-12-06 12:00:00,
2013-12-06 07:10:00,28.9,28.7,30.16,NNW,344,3.4,8.0,99,0.00,n/a,n/a,-99.99,Henriksen +1-Wire,2013-12-06 12:10:00,
2013-12-06 07:20:00,29.0,28.8,30.15,North,352,3.2,6.2,99,0.00,n/a,n/a,-99.99,Henriksen +1-Wire,2013-12-06 12:20:00,
2013-12-06 07:30:00,29.1,28.8,30.15,NNW,348,2.4,7.1,99,0.00,n/a,n/a,-99.99,Henriksen +1-Wire,2013-12-06 12:30:00,
2013-12-06 07:40:00,29.0,28.7,30.16,NNW,335,3.9,6.2,98,0.00,n/a,n/a,-99.99,Henriksen +1-Wire,2013-12-06 12:40:00,
2013-12-06 07:50:00,29.0,28.7,30.17,NNW,338,3.6,6.0,98,0.00,n/a,n/a,-99.99,Henriksen +1-Wire,2013-12-06 12:50:00,
2013-12-06 08:00:00,29.0,28.8,30.18,NNW,327,3.2,6.1,98,0.00,n/a,n/a,-99.99,Henriksen +1-Wire,2013-12-06 13:00:00,
2013-12-06 08:10:00,29.1,28.7,30.18,NW,325,4.4,8.0,98,0.00,n/a,n/a,-99.99,Henriksen +1-Wire,2013-12-06 13:10:00,
2013-12-06 08:20:00,29.0,28.8,30.18,NNW,332,3.9,6.8,99,0.00,n/a,n/a,-99.99,Henriksen +1-Wire,2013-12-06 13:20:00,
2013-12-06 08:30:00,29.1,28.9,30.16,NNW,346,4.3,6.8,99,0.00,n/a,n/a,-99.99,Henriksen +1-Wire,2013-12-06 13:30:00,
2013-12-06 08:40:00,29.0,28.7,30.16,North,350,4.7,7.1,99,0.00,n/a,n/a,-99.99,Henriksen +1-Wire,2013-12-06 13:40:00,
2013-12-06 08:50:00,29.0,28.9,30.18,NNW,339,3.1,6.8,99,0.00,n/a,n/a,-99.99,Henriksen +1-Wire,2013-12-06 13:50:00,
2013-12-06 09:00:00,29.2,29.0,30.18,NNW,337,2.9,4.9,99,0.00,n/a,n/a,-99.99,Henriksen +1-Wire,2013-12-06 14:00:00,
2013-12-06 09:10:00,29.3,29.0,30.18,NNW,341,3.9,6.2,99,0.00,n/a,n/a,-99.99,Henriksen +1-Wire,2013-12-06 14:10:00,
2013-12-06 09:20:00,29.3,29.0,30.18,NNW,345,3.5,7.1,98,0.00,n/a,n/a,-99.99,Henriksen +1-Wire,2013-12-06 14:20:00,
2013-12-06 09:30:00,29.5,29.2,30.18,North,351,2.5,7.6,98,0.00,n/a,n/a,-99.99,Henriksen +1-Wire,2013-12-06 14:30:00,
2013-12-06 09:40:00,29.0,28.8,30.19,North,355,2.3,5.2,99,0.00,n/a,n/a,-99.99,Henriksen +1-Wire,2013-12-06 14:40:00,
2013-12-06 09:50:00,29.4,29.0,30.19,NNW,347,3.6,7.5,98,0.00,n/a,n/a,-99.99,Henriksen +1-Wire,2013-12-06 14:50:00,
2013-12-06 10:00:00,28.9,28.5,30.19,NNW,336,2.8,8.4,98,0.00,n/a,n/a,-99.99,Henriksen +1-Wire,2013-12-06 15:00:00,
2013-12-06 10:10:00,28.1,27.9,30.18,NNW,341,3.8,7.5,98,0.00,n/a,n/a,-99.99,Henriksen +1-Wire,2013-12-06 15:10:00,
2013-12-06 10:20:00,29.4,29.0,30.19,NNW,339,3.8,7.6,98,0.00,n/a,n/a,-99.99,Henriksen +1-Wire,2013-12-06 15:20:00,
2013-12-06 10:30:00,29.0,28.6,30.20,NNW,342,4.5,8.4,98,0.00,n/a,n/a,-99.99,Henriksen +1-Wire,2013-12-06 15:30:00,
2013-12-06 10:40:00,28.2,27.9,30.19,NNW,345,2.9,6.2,98,0.00,n/a,n/a,-99.99,Henriksen +1-Wire,2013-12-06 15:40:00,
2013-12-06 10:50:00,28.5,28.0,30.20,NNW,340,4.2,8.9,98,0.00,n/a,n/a,-99.99,Henriksen +1-Wire,2013-12-06 15:50:00,
2013-12-06 11:00:00,28.1,27.6,30.20,NNW,341,4.9,6.2,98,0.00,n/a,n/a,-99.99,Henriksen +1-Wire,2013-12-06 16:00:00,
2013-12-06 11:10:00,28.7,28.1,30.20,North,357,2.8,7.6,97,0.00,n/a,n/a,-99.99,Henriksen +1-Wire,2013-12-06 16:10:00,
2013-12-06 11:20:00,29.1,28.8,30.19,NNW,335,4.6,7.6,98,0.00,n/a,n/a,-99.99,Henriksen +1-Wire,2013-12-06 16:20:00,
2013-12-06 11:30:00,28.3,28.0,30.19,NNW,341,5.3,7.6,99,0.00,n/a,n/a,-99.99,Henriksen +1-Wire,2013-12-06 16:30:00,
2013-12-06 11:40:00,29.4,29.3,30.19,NNW,330,4.7,8.6,99,0.00,n/a,n/a,-99.99,Henriksen +1-Wire,2013-12-06 16:40:00,
2013-12-06 11:50:00,29.5,29.5,30.19,NNW,346,4.8,9.8,99,0.00,n/a,n/a,-99.99,Henriksen +1-Wire,2013-12-06 16:50:00,
2013-12-06 12:00:00,29.4,29.4,30.19,NNW,339,5.4,9.9,99,0.00,n/a,n/a,-99.99,Henriksen +1-Wire,2013-12-06 17:00:00,
2013-12-06 12:10:00,29.5,29.4,30.19,NNW,334,4.5,9.7,99,0.00,n/a,n/a,-99.99,Henriksen +1-Wire,2013-12-06 17:10:00,
2013-12-06 12:20:00,29.4,29.4,30.18,NNW,336,5.6,8.7,100,0.00,n/a,n/a,-99.99,Henriksen +1-Wire,2013-12-06 17:20:00,
2013-12-06 12:30:00,29.4,29.4,30.18,NNW,328,5.1,11.0,100,0.00,n/a,n/a,-99.99,Henriksen +1-Wire,2013-12-06 17:30:00,
2013-12-06 12:40:00,29.2,29.2,30.16,NNW,340,5.3,9.3,100,0.00,n/a,n/a,-99.99,Henriksen +1-Wire,2013-12-06 17:40:00,
2013-12-06 12:50:00,29.2,29.2,30.16,NNW,344,3.7,8.6,100,0.00,n/a,n/a,-99.99,Henriksen +1-Wire,2013-12-06 17:50:00,
2013-12-06 13:00:00,29.5,29.5,30.16,NNW,345,2.9,6.2,100,0.00,n/a,n/a,-99.99,Henriksen +1-Wire,2013-12-06 18:00:00,
2013-12-06 13:10:00,29.3,29.3,30.16,North,354,4.0,11.0,100,0.00,n/a,n/a,-99.99,Henriksen +1-Wire,2013-12-06 18:10:00,
2013-12-06 13:20:00,29.3,29.2,30.17,NNW,348,5.3,11.1,99,0.00,n/a,n/a,-99.99,Henriksen +1-Wire,2013-12-06 18:20:00,
2013-12-06 13:30:00,29.3,29.3,30.17,NNW,346,5.7,10.5,99,0.00,n/a,n/a,-99.99,Henriksen +1-Wire,2013-12-06 18:30:00,
2013-12-06 13:40:00,29.6,29.4,30.15,North,352,4.6,11.0,99,0.00,n/a,n/a,-99.99,Henriksen +1-Wire,2013-12-06 18:40:00,
2013-12-06 13:50:00,29.3,29.2,30.15,NNW,348,5.3,8.5,99,0.00,n/a,n/a,-99.99,Henriksen +1-Wire,2013-12-06 18:50:00,
2013-12-06 14:00:00,29.3,29.2,30.15,North,353,6.1,10.1,99,0.00,n/a,n/a,-99.99,Henriksen +1-Wire,2013-12-06 19:00:00,
2013-12-06 14:10:00,29.5,29.5,30.14,North,349,4.6,7.6,100,0.00,n/a,n/a,-99.99,Henriksen +1-Wire,2013-12-06 19:10:00,
2013-12-06 14:20:00,29.4,29.4,30.15,NNW,341,6.0,8.5,100,0.00,n/a,n/a,-99.99,Henriksen +1-Wire,2013-12-06 19:20:00,
2013-12-06 14:30:00,29.4,29.4,30.16,NNW,345,6.0,9.8,100,0.00,n/a,n/a,-99.99,Henriksen +1-Wire,2013-12-06 19:30:00,
2013-12-06 14:40:00,29.5,29.4,30.15,NNW,342,5.5,9.3,99,0.00,n/a,n/a,-99.99,Henriksen +1-Wire,2013-12-06 19:40:00,
2013-12-06 14:50:00,29.4,29.3,30.13,NNW,347,4.7,10.1,99,0.00,n/a,n/a,-99.99,Henriksen +1-Wire,2013-12-06 19:50:00,
2013-12-06 15:10:00,29.2,29.2,30.14,NNW,338,3.6,7.6,100,0.00,n/a,n/a,-99.99,Henriksen +1-Wire,2013-12-06 20:10:00,
2013-12-06 15:20:00,29.2,29.2,30.15,NNW,342,3.2,8.5,100,0.00,n/a,n/a,-99.99,Henriksen +1-Wire,2013-12-06 20:20:00,
2013-12-06 15:30:00,29.2,29.2,30.15,NNW,337,3.6,6.8,100,0.00,n/a,n/a,-99.99,Henriksen +1-Wire,2013-12-06 20:30:00,
2013-12-06 15:40:00,29.2,29.2,30.16,NNW,340,4.0,8.9,100,0.00,n/a,n/a,-99.99,Henriksen +1-Wire,2013-12-06 20:40:00,
2013-12-06 15:50:00,29.2,29.2,30.16,NNW,341,3.3,9.3,100,0.00,n/a,n/a,-99.99,Henriksen +1-Wire,2013-12-06 20:50:00,
2013-12-06 16:00:00,29.1,29.1,30.18,NNW,334,4.8,9.3,100,0.00,n/a,n/a,-99.99,Henriksen +1-Wire,2013-12-06 21:00:00,
2013-12-06 16:10:00,29.1,29.1,30.18,NNW,341,4.3,7.6,100,0.00,n/a,n/a,-99.99,Henriksen +1-Wire,2013-12-06 21:10:00,
2013-12-06 16:20:00,29.1,29.1,30.18,NNW,344,4.5,6.7,100,0.00,n/a,n/a,-99.99,Henriksen +1-Wire,2013-12-06 21:20:00,
2013-12-06 16:30:00,27.4,27.4,30.17,North,352,5.4,15.0,100,0.00,n/a,n/a,-99.99,Henriksen +1-Wire,2013-12-06 21:30:00,
2013-12-06 16:40:00,26.7,26.7,30.17,NNW,345,4.3,7.6,100,0.00,n/a,n/a,-99.99,Henriksen +1-Wire,2013-12-06 21:40:00,
2013-12-06 16:50:00,26.7,26.7,30.19,NNW,345,6.1,11.2,100,0.00,n/a,n/a,-99.99,Henriksen +1-Wire,2013-12-06 21:50:00,
2013-12-06 17:00:00,26.7,26.7,30.20,NNW,343,3.1,8.0,100,0.00,n/a,n/a,-99.99,Henriksen +1-Wire,2013-12-06 22:00:00,
2013-12-06 17:10:00,26.6,26.6,30.19,NNW,336,3.4,6.8,100,0.00,n/a,n/a,-99.99,Henriksen +1-Wire,2013-12-06 22:10:00,
2013-12-06 17:20:00,26.5,26.5,30.18,NNW,347,4.6,10.7,100,0.00,n/a,n/a,-99.99,Henriksen +1-Wire,2013-12-06 22:20:00,
2013-12-06 17:30:00,26.5,26.5,30.19,NNW,343,3.9,6.7,100,0.00,n/a,n/a,-99.99,Henriksen +1-Wire,2013-12-06 22:30:00,
2013-12-06 17:40:00,26.5,26.5,30.20,NNW,348,3.7,7.1,100,0.00,n/a,n/a,-99.99,Henriksen +1-Wire,2013-12-06 22:40:00,
2013-12-06 17:50:00,26.4,26.4,30.19,NNW,342,4.7,9.3,100,0.00,n/a,n/a,-99.99,Henriksen +1-Wire,2013-12-06 22:50:00,
2013-12-06 18:00:00,26.4,26.4,30.19,North,351,4.7,7.6,100,0.00,n/a,n/a,-99.99,Henriksen +1-Wire,2013-12-06 23:00:00,
2013-12-06 18:10:00,26.5,26.5,30.22,NNW,330,2.8,7.6,100,0.00,n/a,n/a,-99.99,Henriksen +1-Wire,2013-12-06 23:10:00,
2013-12-06 18:20:00,26.5,26.5,30.23,NNW,328,3.7,7.8,100,0.00,n/a,n/a,-99.99,Henriksen +1-Wire,2013-12-06 23:20:00,
2013-12-06 18:30:00,26.4,26.4,30.25,NNW,330,4.2,7.6,100,0.00,n/a,n/a,-99.99,Henriksen +1-Wire,2013-12-06 23:30:00,
2013-12-06 18:40:00,26.2,26.2,30.24,NNW,338,2.3,8.1,100,0.00,n/a,n/a,-99.99,Henriksen +1-Wire,2013-12-06 23:40:00,
2013-12-06 18:50:00,26.4,26.4,30.23,NNW,337,1.7,5.1,100,0.00,n/a,n/a,-99.99,Henriksen +1-Wire,2013-12-06 23:50:00,
2013-12-06 19:00:00,27.7,27.7,30.26,NW,325,3.1,8.4,100,0.00,n/a,n/a,-99.99,Henriksen +1-Wire,2013-12-07 00:00:00,
2013-12-06 19:10:00,27.5,27.5,30.24,NNW,331,4.3,8.5,100,0.00,n/a,n/a,-99.99,Henriksen +1-Wire,2013-12-07 00:10:00,
2013-12-06 19:20:00,27.4,27.4,30.24,NNW,339,3.5,7.1,100,0.00,n/a,n/a,-99.99,Henriksen +1-Wire,2013-12-07 00:20:00,
2013-12-06 19:30:00,27.3,27.3,30.25,NNW,329,4.7,8.9,100,0.00,n/a,n/a,-99.99,Henriksen +1-Wire,2013-12-07 00:30:00,
2013-12-06 19:40:00,27.3,27.3,30.25,NNW,341,3.8,6.7,100,0.00,n/a,n/a,-99.99,Henriksen +1-Wire,2013-12-07 00:40:00,
2013-12-06 19:50:00,27.2,27.2,30.23,NNW,343,5.4,8.2,100,0.00,n/a,n/a,-99.99,Henriksen +1-Wire,2013-12-07 00:50:00,
2013-12-06 20:10:00,27.2,27.2,30.25,North,349,4.0,7.6,100,0.00,n/a,n/a,-99.99,Henriksen +1-Wire,2013-12-07 01:10:00,
2013-12-06 20:20:00,27.2,27.2,30.25,NNW,340,4.1,8.4,100,0.00,n/a,n/a,-99.99,Henriksen +1-Wire,2013-12-07 01:20:00,
2013-12-06 20:30:00,27.2,27.2,30.27,NNW,333,3.7,7.1,100,0.00,n/a,n/a,-99.99,Henriksen +1-Wire,2013-12-07 01:30:00,
2013-12-06 20:40:00,27.3,27.3,30.29,NW,319,3.6,7.1,100,0.00,n/a,n/a,-99.99,Henriksen +1-Wire,2013-12-07 01:40:00,
2013-12-06 20:50:00,27.2,27.2,30.29,NW,325,3.7,6.6,100,0.00,n/a,n/a,-99.99,Henriksen +1-Wire,2013-12-07 01:50:00,
2013-12-06 21:00:00,27.2,27.2,30.29,NNW,332,2.6,5.4,100,0.00,n/a,n/a,-99.99,Henriksen +1-Wire,2013-12-07 02:00:00,
2013-12-06 21:10:00,27.2,27.2,30.29,NNW,336,2.7,5.1,100,0.00,n/a,n/a,-99.99,Henriksen +1-Wire,2013-12-07 02:10:00,
2013-12-06 21:20:00,27.2,27.2,30.29,NNW,347,2.4,5.9,100,0.00,n/a,n/a,-99.99,Henriksen +1-Wire,2013-12-07 02:20:00,
2013-12-06 21:30:00,27.2,27.2,30.29,North,351,1.4,3.4,100,0.00,n/a,n/a,-99.99,Henriksen +1-Wire,2013-12-07 02:30:00,
2013-12-06 21:40:00,27.3,27.3,30.29,North,355,1.6,3.4,100,0.00,n/a,n/a,-99.99,Henriksen +1-Wire,2013-12-07 02:40:00,
2013-12-06 21:50:00,27.3,27.3,30.30,NNW,346,0.1,2.7,100,0.00,n/a,n/a,-99.99,Henriksen +1-Wire,2013-12-07 02:50:00,
2013-12-06 22:00:00,27.3,27.3,30.30,NNW,337,0.6,2.5,100,0.00,n/a,n/a,-99.99,Henriksen +1-Wire,2013-12-07 03:00:00,
2013-12-06 22:10:00,27.3,27.3,30.31,NNW,343,1.4,3.4,100,0.00,n/a,n/a,-99.99,Henriksen +1-Wire,2013-12-07 03:10:00,
2013-12-06 22:20:00,27.3,27.3,30.30,NNW,340,1.3,2.7,100,0.00,n/a,n/a,-99.99,Henriksen +1-Wire,2013-12-07 03:20:00,
2013-12-06 22:30:00,27.3,27.3,30.32,NNW,327,0.7,2.4,100,0.00,n/a,n/a,-99.99,Henriksen +1-Wire,2013-12-07 03:30:00,
2013-12-06 22:40:00,27.4,27.4,30.33,NW,305,1.3,2.7,100,0.00,n/a,n/a,-99.99,Henriksen +1-Wire,2013-12-07 03:40:00,
2013-12-06 22:50:00,27.4,27.4,30.33,NW,325,1.3,3.4,100,0.00,n/a,n/a,-99.99,Henriksen +1-Wire,2013-12-07 03:50:00,
2013-12-06 23:00:00,27.4,27.4,30.33,NW,324,0.3,2.5,100,0.00,n/a,n/a,-99.99,Henriksen +1-Wire,2013-12-07 04:00:00,
2013-12-06 23:10:00,27.3,27.3,30.33,NNW,330,2.6,4.9,100,0.00,n/a,n/a,-99.99,Henriksen +1-Wire,2013-12-07 04:10:00,
2013-12-06 23:20:00,27.2,27.1,30.33,NNW,335,1.7,5.1,99,0.00,n/a,n/a,-99.99,Henriksen +1-Wire,2013-12-07 04:20:00,
2013-12-06 23:30:00,27.1,27.0,30.33,NNW,347,2.1,4.3,99,0.00,n/a,n/a,-99.99,Henriksen +1-Wire,2013-12-07 04:30:00,
2013-12-06 23:40:00,27.1,27.0,30.34,NNW,335,1.4,4.5,99,0.00,n/a,n/a,-99.99,Henriksen +1-Wire,2013-12-07 04:40:00,
2013-12-06 23:50:00,27.1,27.1,30.34,NNW,327,1.4,3.1,99,0.00,n/a,n/a,-99.99,Henriksen +1-Wire,2013-12-07 04:50:00,